Country
Station

 

Weather  for  Hayden/Yampa Automatic Weather Observing/Reporting System  -  United States    United States

  
20 °C (68 °F)
    
 
 

Current METAR for Hayden/Yampa Automatic Weather Observing/Reporting System is :

KHDN 211756Z AUTO VRB03KT 10SM CLR 20/M02 A3008 RMK AO2 SLP128 T02001017 10206 20039 56007

 

This is a report for Hayden/Yampa Automatic Weather Observing/Reporting System - United States.
 
The report was made 27 minutes ago, at 17:56 UTC .
The wind was blowing at a speed of 1.5 meters per second (3.5 miles per hour) from variable directions.
 
The temperature was 20 °C (68 °F), with a dew-point at -2 °C (28 °F).
The atmospheric pressure was 1019 hPa (30.08 inHg).
The relative humidity was 22.6%.
 
The sky was clear.
 
The overall visibility was 16.1 kilometers (10.0 miles).
 

 
 
 
 

Country :   A   B   C   D   E   F   G   H   I   J   K   L   M   N   O   P   Q   R   S   T   U   V   W   Y   Z

 

Site Info  |  Disclaimer  |  Credits  |  Privacy
Contact us  |  Add to favorites
© 2013-2018 METARs - All rights reserved